createdAt,value
2017-08-10T00:00:54.033Z,20.00
2017-08-10T00:03:21.999Z,20.00
2017-08-10T00:05:49.567Z,19.90
2017-08-10T00:08:17.145Z,19.90
2017-08-10T00:10:45.494Z,19.70
2017-08-10T00:13:13.065Z,19.70
2017-08-10T00:15:41.133Z,19.70
2017-08-10T00:18:08.687Z,19.50
2017-08-10T00:20:36.250Z,19.30
2017-08-10T00:23:03.854Z,19.20
2017-08-10T00:25:31.462Z,19.20
2017-08-10T00:27:59.452Z,19.20
2017-08-10T00:30:26.999Z,19.30
2017-08-10T00:32:54.558Z,19.20
2017-08-10T00:35:22.188Z,19.20
2017-08-10T00:37:49.742Z,19.20
2017-08-10T00:40:17.753Z,19.30
2017-08-10T00:42:45.312Z,19.40
2017-08-10T00:45:12.874Z,19.50
2017-08-10T00:47:40.467Z,19.40
2017-08-10T00:50:08.039Z,19.40
2017-08-10T00:52:36.065Z,19.50
2017-08-10T00:55:03.630Z,19.40
2017-08-10T00:57:31.181Z,19.30
2017-08-10T00:59:58.790Z,19.20
2017-08-10T01:02:26.343Z,19.20
2017-08-10T01:04:54.351Z,19.20
2017-08-10T01:07:21.911Z,19.30
2017-08-10T01:09:49.474Z,19.30
2017-08-10T01:12:17.074Z,19.40
2017-08-10T01:14:44.650Z,19.50
2017-08-10T01:17:12.563Z,19.40
2017-08-10T01:19:40.148Z,19.30
2017-08-10T01:22:07.701Z,19.20
2017-08-10T01:24:35.448Z,19.20
2017-08-10T01:27:03.039Z,19.30
2017-08-10T01:29:30.919Z,19.30
2017-08-10T01:31:58.493Z,19.30
2017-08-10T01:34:26.053Z,19.40
2017-08-10T01:36:53.767Z,19.40
2017-08-10T01:39:21.347Z,19.50
2017-08-10T01:41:49.292Z,19.50
2017-08-10T01:44:16.852Z,19.50
2017-08-10T01:46:44.687Z,19.50
2017-08-10T01:49:12.299Z,19.50
2017-08-10T01:51:40.674Z,19.50
2017-08-10T01:54:08.755Z,19.50
2017-08-10T01:56:36.325Z,19.40
2017-08-10T01:59:04.657Z,19.30
2017-08-10T02:01:32.267Z,19.30
2017-08-10T02:03:59.833Z,19.30
2017-08-10T02:06:27.978Z,19.20
2017-08-10T02:08:56.313Z,19.20
2017-08-10T02:11:23.938Z,19.10
2017-08-10T02:13:51.900Z,19.10
2017-08-10T02:16:19.469Z,19.10
2017-08-10T02:18:47.484Z,19.10
2017-08-10T02:21:15.035Z,19.10
2017-08-10T02:23:42.585Z,19.10
2017-08-10T02:26:10.231Z,19.10
2017-08-10T02:28:37.813Z,19.10
2017-08-10T02:31:05.819Z,19.10
2017-08-10T02:33:33.368Z,19.10
2017-08-10T02:36:00.945Z,19.10
2017-08-10T02:38:29.328Z,19.10
2017-08-10T02:40:56.899Z,19.00
2017-08-10T02:43:25.573Z,19.00
2017-08-10T02:45:53.931Z,19.00
2017-08-10T02:48:21.504Z,19.00
2017-08-10T02:50:49.876Z,19.00
2017-08-10T02:53:17.448Z,19.00
2017-08-10T02:55:46.125Z,19.10
2017-08-10T02:58:13.686Z,19.00
2017-08-10T03:00:41.516Z,19.00
2017-08-10T03:03:09.136Z,19.00
2017-08-10T03:05:36.708Z,19.00
2017-08-10T03:08:04.633Z,19.00
2017-08-10T03:10:32.188Z,19.00
2017-08-10T03:12:59.753Z,18.90
2017-08-10T03:15:27.373Z,18.90
2017-08-10T03:17:54.927Z,18.90
2017-08-10T03:20:22.940Z,18.90
2017-08-10T03:22:50.537Z,18.90
2017-08-10T03:25:18.119Z,18.80
2017-08-10T03:27:45.707Z,18.80
2017-08-10T03:30:13.255Z,18.70
2017-08-10T03:32:41.253Z,18.70
2017-08-10T03:35:08.818Z,18.70
2017-08-10T03:37:36.536Z,18.70
2017-08-10T03:40:04.145Z,18.70
2017-08-10T03:42:31.698Z,18.60
2017-08-10T03:44:59.761Z,18.60
2017-08-10T03:47:27.336Z,18.50
2017-08-10T03:49:54.889Z,18.50
2017-08-10T03:52:22.657Z,18.40
2017-08-10T03:54:50.246Z,18.40
2017-08-10T03:57:18.281Z,18.40
2017-08-10T03:59:45.860Z,18.30
2017-08-10T04:02:13.413Z,18.30
2017-08-10T04:04:41.989Z,18.20
2017-08-10T04:07:09.569Z,18.20
2017-08-10T04:09:38.258Z,18.20
2017-08-10T04:12:05.813Z,18.20
2017-08-10T04:14:33.366Z,18.20
2017-08-10T04:17:00.987Z,18.20
2017-08-10T04:19:28.550Z,18.20
2017-08-10T04:21:56.531Z,18.20
2017-08-10T04:24:24.069Z,18.20
2017-08-10T04:26:51.628Z,18.10
2017-08-10T04:29:19.254Z,18.10
2017-08-10T04:31:46.912Z,18.10
2017-08-10T04:34:14.838Z,18.00
2017-08-10T04:36:42.421Z,17.90
2017-08-10T04:39:09.971Z,17.90
2017-08-10T04:41:37.578Z,18.00
2017-08-10T04:44:05.142Z,18.00
2017-08-10T04:46:33.146Z,18.00
2017-08-10T04:49:00.712Z,18.10
2017-08-10T04:51:28.277Z,18.00
2017-08-10T04:53:55.880Z,18.10
2017-08-10T04:56:23.438Z,18.10
2017-08-10T04:58:51.467Z,18.10
2017-08-10T05:01:19.044Z,18.10
2017-08-10T05:03:46.804Z,18.10
2017-08-10T05:06:14.535Z,18.10
2017-08-10T05:08:42.135Z,18.10
2017-08-10T05:11:10.794Z,18.10
2017-08-10T05:13:38.385Z,18.10
2017-08-10T05:16:05.940Z,18.20
2017-08-10T05:18:34.313Z,18.20
2017-08-10T05:21:01.874Z,18.20
2017-08-10T05:23:30.545Z,18.30
2017-08-10T05:25:58.104Z,18.30
2017-08-10T05:28:25.649Z,18.30
2017-08-10T05:30:53.251Z,18.30
2017-08-10T05:33:20.819Z,18.30
2017-08-10T05:35:48.848Z,18.20
2017-08-10T05:38:16.416Z,18.20
2017-08-10T05:40:43.986Z,18.20
2017-08-10T05:43:12.354Z,18.10
2017-08-10T05:45:39.998Z,18.10
2017-08-10T05:48:07.991Z,18.10
2017-08-10T05:50:36.322Z,18.30
2017-08-10T05:53:03.892Z,18.30
2017-08-10T05:55:31.488Z,18.30
2017-08-10T05:57:59.053Z,18.30
2017-08-10T06:00:27.712Z,18.40
2017-08-10T06:02:55.272Z,18.40
2017-08-10T06:05:22.848Z,18.50
2017-08-10T06:07:50.449Z,18.50
2017-08-10T06:10:18.001Z,18.50
2017-08-10T06:12:45.878Z,18.40
2017-08-10T06:15:13.433Z,18.40
2017-08-10T06:17:40.995Z,18.30
2017-08-10T06:20:08.605Z,18.20
2017-08-10T06:22:36.944Z,18.30
2017-08-10T06:25:04.952Z,18.30
2017-08-10T06:27:32.554Z,18.30
2017-08-10T06:30:00.092Z,18.40
2017-08-10T06:32:28.472Z,18.30
2017-08-10T06:34:56.036Z,18.30
2017-08-10T06:37:24.696Z,18.40
2017-08-10T06:39:52.244Z,18.40
2017-08-10T06:42:19.809Z,18.50
2017-08-10T06:44:47.421Z,18.50
2017-08-10T06:47:15.003Z,18.50
2017-08-10T06:49:43.018Z,18.50
2017-08-10T06:52:11.358Z,18.50
2017-08-10T06:54:38.940Z,18.50
2017-08-10T06:57:06.597Z,18.50
2017-08-10T06:59:34.943Z,18.60
2017-08-10T07:02:02.939Z,18.70
2017-08-10T07:04:30.501Z,18.70
2017-08-10T07:06:58.110Z,18.70
2017-08-10T07:09:25.925Z,18.70
2017-08-10T07:11:53.508Z,18.70
2017-08-10T07:14:21.468Z,18.70
2017-08-10T07:16:49.030Z,18.70
2017-08-10T07:19:16.601Z,18.80
2017-08-10T07:21:44.242Z,18.80
2017-08-10T07:24:11.814Z,18.80
2017-08-10T07:26:39.945Z,18.80
2017-08-10T07:29:07.516Z,18.80
2017-08-10T07:31:35.089Z,18.80
2017-08-10T07:34:02.686Z,18.80
2017-08-10T07:36:30.241Z,18.80
2017-08-10T07:38:58.909Z,18.90
2017-08-10T07:41:26.475Z,18.90
2017-08-10T07:43:54.051Z,18.90
2017-08-10T07:46:22.425Z,19.00
2017-08-10T07:48:50.005Z,19.00
2017-08-10T07:51:20.322Z,19.00
2017-08-10T07:53:47.908Z,19.10
2017-08-10T07:56:15.477Z,19.10
2017-08-10T07:58:43.134Z,19.20
2017-08-10T08:01:10.714Z,19.20
2017-08-10T08:03:38.610Z,19.20
2017-08-10T08:06:06.937Z,19.20
2017-08-10T08:08:34.519Z,19.30
2017-08-10T08:11:02.193Z,19.30
2017-08-10T08:13:30.093Z,19.40
2017-08-10T08:15:58.953Z,19.50
2017-08-10T08:18:26.686Z,19.40
2017-08-10T08:20:54.239Z,19.60
2017-08-10T08:23:21.871Z,19.60
2017-08-10T08:25:49.443Z,19.80
2017-08-10T08:28:17.461Z,19.90
2017-08-10T08:30:45.050Z,19.90
2017-08-10T08:33:12.755Z,20.00
2017-08-10T08:35:40.428Z,20.00
2017-08-10T08:38:08.011Z,20.00
2017-08-10T08:40:35.995Z,20.00
2017-08-10T08:43:04.322Z,20.10
2017-08-10T08:45:31.890Z,20.00
2017-08-10T08:47:59.489Z,20.10
2017-08-10T08:50:27.049Z,20.20
2017-08-10T08:52:54.924Z,20.20
2017-08-10T08:55:23.328Z,20.30
2017-08-10T08:57:50.905Z,20.20
2017-08-10T09:00:18.509Z,20.20
2017-08-10T09:02:46.052Z,20.30
2017-08-10T09:05:14.226Z,20.50
2017-08-10T09:07:41.810Z,20.60
2017-08-10T09:10:09.383Z,20.80
2017-08-10T09:12:37.845Z,20.90
2017-08-10T09:15:05.409Z,20.90
2017-08-10T09:17:33.330Z,21.00
2017-08-10T09:20:00.896Z,21.20
2017-08-10T09:22:28.469Z,21.20
2017-08-10T09:24:56.221Z,21.20
2017-08-10T09:27:23.787Z,21.30
2017-08-10T09:29:51.875Z,21.30
2017-08-10T09:32:19.439Z,21.40
2017-08-10T09:34:47.003Z,21.40
2017-08-10T09:37:14.621Z,21.40
2017-08-10T09:39:42.194Z,21.40
2017-08-10T09:42:10.062Z,21.50
2017-08-10T09:44:37.620Z,21.70
2017-08-10T09:47:05.229Z,21.70
2017-08-10T09:49:32.934Z,21.80
2017-08-10T09:52:00.500Z,22.00
2017-08-10T09:54:28.499Z,22.00
2017-08-10T09:56:56.058Z,22.00
2017-08-10T09:59:24.404Z,22.20
2017-08-10T10:01:52.025Z,22.10
2017-08-10T10:04:19.597Z,22.20
2017-08-10T10:06:47.791Z,22.40
2017-08-10T10:09:15.334Z,22.50
2017-08-10T10:11:42.977Z,22.60
2017-08-10T10:14:11.334Z,22.60
2017-08-10T10:16:38.901Z,22.50
2017-08-10T10:19:06.961Z,22.60
2017-08-10T10:21:34.791Z,22.60
2017-08-10T10:24:02.352Z,22.60
2017-08-10T10:26:29.988Z,22.50
2017-08-10T10:28:57.709Z,22.50
2017-08-10T10:31:25.694Z,22.50
2017-08-10T10:33:54.028Z,22.40
2017-08-10T10:36:21.825Z,22.30
2017-08-10T10:38:51.223Z,22.30
2017-08-10T10:41:18.840Z,22.30
2017-08-10T10:43:46.873Z,22.40
2017-08-10T10:46:15.214Z,22.50
2017-08-10T10:48:42.764Z,22.40
2017-08-10T10:51:10.370Z,22.50
2017-08-10T10:53:37.940Z,22.50
2017-08-10T10:56:06.584Z,22.70
2017-08-10T10:58:34.150Z,22.70
2017-08-10T11:01:01.707Z,22.70
2017-08-10T11:03:29.321Z,22.80
2017-08-10T11:05:56.953Z,22.80
2017-08-10T11:08:24.897Z,22.80
2017-08-10T11:10:52.472Z,22.90
2017-08-10T11:13:20.091Z,22.80
2017-08-10T11:15:47.753Z,22.90
2017-08-10T11:18:15.313Z,22.90
2017-08-10T11:20:43.536Z,23.00
2017-08-10T11:23:11.091Z,23.10
2017-08-10T11:25:38.658Z,23.20
2017-08-10T11:28:06.262Z,23.40
2017-08-10T11:30:33.849Z,23.50
2017-08-10T11:33:01.709Z,23.60
2017-08-10T11:35:29.293Z,23.70
2017-08-10T11:37:56.862Z,23.80
2017-08-10T11:40:24.638Z,23.90
2017-08-10T11:42:52.338Z,24.00
2017-08-10T11:45:20.481Z,24.20
2017-08-10T11:47:48.805Z,24.40
2017-08-10T11:50:16.535Z,24.30
2017-08-10T11:52:44.121Z,24.40
2017-08-10T11:55:11.665Z,24.50
2017-08-10T11:57:39.654Z,24.50
2017-08-10T12:00:07.232Z,24.70
2017-08-10T12:02:34.813Z,24.70
2017-08-10T12:05:02.629Z,24.90
2017-08-10T12:07:30.197Z,25.00
2017-08-10T12:09:58.084Z,25.10
2017-08-10T12:12:25.664Z,25.10
2017-08-10T12:14:54.041Z,25.00
2017-08-10T12:17:21.642Z,25.00
2017-08-10T12:19:49.261Z,25.00
2017-08-10T12:22:17.327Z,24.90
2017-08-10T12:24:44.940Z,24.80
2017-08-10T12:27:13.107Z,24.70
2017-08-10T12:29:40.722Z,24.60
2017-08-10T12:32:08.304Z,24.50
2017-08-10T12:34:36.253Z,24.50
2017-08-10T12:37:03.837Z,24.50
2017-08-10T12:39:31.410Z,24.40
2017-08-10T12:41:59.013Z,24.60
2017-08-10T12:44:26.599Z,24.50
2017-08-10T12:46:54.602Z,24.50
2017-08-10T12:49:22.157Z,24.50
2017-08-10T12:51:49.727Z,24.50
2017-08-10T12:54:17.328Z,24.40
2017-08-10T12:56:44.889Z,24.20
2017-08-10T12:59:12.865Z,24.10
2017-08-10T13:01:40.982Z,24.00
2017-08-10T13:04:08.564Z,24.00
2017-08-10T13:06:36.309Z,24.00
2017-08-10T13:09:03.907Z,23.90
2017-08-10T13:11:32.196Z,23.90
2017-08-10T13:13:59.765Z,23.80
2017-08-10T13:16:27.344Z,23.80
2017-08-10T13:18:56.016Z,23.90
2017-08-10T13:21:23.612Z,24.00
2017-08-10T13:23:51.599Z,24.10
2017-08-10T13:26:19.568Z,24.10
2017-08-10T13:28:47.143Z,24.10
2017-08-10T13:31:14.761Z,24.10
2017-08-10T13:33:42.307Z,24.00
2017-08-10T13:36:10.266Z,24.00
2017-08-10T13:38:37.822Z,24.20
2017-08-10T13:41:06.152Z,24.30
2017-08-10T13:43:33.790Z,24.50
2017-08-10T13:46:01.368Z,25.10
2017-08-10T13:48:29.363Z,25.10
2017-08-10T13:50:56.914Z,25.10
2017-08-10T13:53:24.479Z,25.10
2017-08-10T13:55:52.088Z,25.20
2017-08-10T13:58:19.649Z,25.30
2017-08-10T14:00:48.522Z,25.80
2017-08-10T14:03:16.206Z,25.70
2017-08-10T14:05:43.753Z,26.90
2017-08-10T14:08:12.246Z,28.10
2017-08-10T14:10:39.801Z,28.00
2017-08-10T14:13:08.650Z,28.30
2017-08-10T14:15:36.204Z,28.30
2017-08-10T14:18:03.772Z,28.00
2017-08-10T14:20:31.394Z,27.60
2017-08-10T14:22:58.979Z,27.30
2017-08-10T14:25:26.984Z,27.10
2017-08-10T14:27:54.556Z,26.80
2017-08-10T14:30:22.134Z,26.50
2017-08-10T14:32:49.720Z,26.40
2017-08-10T14:35:17.296Z,26.20
2017-08-10T14:37:45.282Z,26.00
2017-08-10T14:40:12.840Z,25.90
2017-08-10T14:42:40.427Z,25.90
2017-08-10T14:45:08.791Z,25.70
2017-08-10T14:47:36.363Z,25.60
2017-08-10T14:50:05.035Z,25.40
2017-08-10T14:52:33.384Z,25.30
2017-08-10T14:55:00.990Z,25.30
2017-08-10T14:57:29.395Z,25.20
2017-08-10T14:59:56.953Z,25.20
2017-08-10T15:02:24.977Z,25.10
2017-08-10T15:04:52.551Z,25.20
2017-08-10T15:07:20.143Z,25.20
2017-08-10T15:09:47.783Z,25.10
2017-08-10T15:12:16.120Z,25.10
2017-08-10T15:14:44.115Z,25.10
2017-08-10T15:17:11.689Z,25.20
2017-08-10T15:19:39.245Z,25.30
2017-08-10T15:22:07.605Z,25.10
2017-08-10T15:24:35.193Z,25.10
2017-08-10T15:27:03.224Z,25.00
2017-08-10T15:29:30.783Z,24.90
2017-08-10T15:31:58.718Z,24.90
2017-08-10T15:34:26.310Z,24.80
2017-08-10T15:36:54.125Z,24.70
2017-08-10T15:39:22.165Z,24.50
2017-08-10T15:41:50.188Z,24.50
2017-08-10T15:44:17.750Z,24.40
2017-08-10T15:46:45.353Z,24.30
2017-08-10T15:49:12.925Z,24.30
2017-08-10T15:51:41.092Z,24.30
2017-08-10T15:54:09.442Z,24.10
2017-08-10T15:56:37.288Z,24.10
2017-08-10T15:59:04.947Z,24.10
2017-08-10T16:01:32.527Z,24.00
2017-08-10T16:04:00.620Z,24.00
2017-08-10T16:06:28.206Z,24.00
2017-08-10T16:08:55.751Z,24.10
2017-08-10T16:11:24.154Z,24.00
2017-08-10T16:13:51.724Z,24.10
2017-08-10T16:16:19.759Z,24.00
2017-08-10T16:18:47.329Z,24.00
2017-08-10T16:21:14.890Z,24.00
2017-08-10T16:23:43.360Z,24.00
2017-08-10T16:26:11.705Z,24.00
2017-08-10T16:28:39.654Z,23.90
2017-08-10T16:31:07.228Z,23.90
2017-08-10T16:33:34.829Z,23.90
2017-08-10T16:36:03.201Z,23.90
2017-08-10T16:38:30.918Z,23.90
2017-08-10T16:40:58.838Z,23.90
2017-08-10T16:43:27.200Z,23.90
2017-08-10T16:45:54.767Z,23.80
2017-08-10T16:48:22.379Z,23.80
2017-08-10T16:50:50.258Z,23.80
2017-08-10T16:53:18.179Z,23.80
2017-08-10T16:55:46.552Z,23.70
2017-08-10T16:58:14.107Z,23.70
2017-08-10T17:00:42.991Z,23.70
2017-08-10T17:03:10.564Z,23.80
2017-08-10T17:05:38.523Z,23.80
2017-08-10T17:08:06.100Z,23.80
2017-08-10T17:10:33.658Z,23.80
2017-08-10T17:13:02.021Z,23.80
2017-08-10T17:15:29.595Z,23.80
2017-08-10T17:17:58.265Z,23.70
2017-08-10T17:20:25.834Z,23.70
2017-08-10T17:22:53.426Z,23.80
2017-08-10T17:25:21.037Z,23.70
2017-08-10T17:27:48.609Z,23.80
2017-08-10T17:30:16.604Z,23.80
2017-08-10T17:32:44.196Z,23.70
2017-08-10T17:35:11.757Z,23.70
2017-08-10T17:37:39.371Z,23.70
2017-08-10T17:40:07.713Z,23.70
2017-08-10T17:42:35.705Z,23.70
2017-08-10T17:45:03.255Z,23.60
2017-08-10T17:47:30.832Z,23.60
2017-08-10T17:49:59.220Z,23.50
2017-08-10T17:52:26.806Z,23.50
2017-08-10T17:54:54.406Z,23.50
2017-08-10T17:57:21.981Z,23.50
2017-08-10T17:59:49.940Z,23.50
2017-08-10T18:02:17.973Z,23.40
2017-08-10T18:04:45.146Z,23.40
2017-08-10T18:07:12.788Z,23.40
2017-08-10T18:09:41.213Z,23.30
2017-08-10T18:12:08.808Z,23.30
2017-08-10T18:14:36.374Z,23.30
2017-08-10T18:17:03.997Z,23.20
2017-08-10T18:19:32.341Z,23.20
2017-08-10T18:21:59.959Z,23.20
2017-08-10T18:24:28.253Z,23.20
2017-08-10T18:26:56.254Z,23.10
2017-08-10T18:29:23.840Z,23.10
2017-08-10T18:31:51.423Z,23.10
2017-08-10T18:34:19.047Z,23.10
2017-08-10T18:36:47.605Z,23.00
2017-08-10T18:39:15.224Z,23.00
2017-08-10T18:41:43.555Z,23.00
2017-08-10T18:44:16.688Z,23.00
2017-08-10T18:46:44.309Z,23.00
2017-08-10T18:49:12.152Z,22.90
2017-08-10T18:51:39.785Z,22.90
2017-08-10T18:54:07.360Z,22.90
2017-08-10T18:56:35.376Z,22.90
2017-08-10T18:59:03.080Z,22.90
2017-08-10T19:01:30.646Z,22.90
2017-08-10T19:03:58.452Z,22.90
2017-08-10T19:06:26.181Z,22.90
2017-08-10T19:08:54.333Z,22.80
2017-08-10T19:11:21.926Z,22.90
2017-08-10T19:13:49.487Z,22.80
2017-08-10T19:16:17.129Z,22.80
2017-08-10T19:18:44.688Z,22.80
2017-08-10T19:21:12.289Z,22.80
2017-08-10T19:23:40.004Z,22.80
2017-08-10T19:26:07.936Z,22.80
2017-08-10T19:28:35.534Z,22.80
2017-08-10T19:31:03.097Z,22.70
2017-08-10T19:33:30.716Z,22.80
2017-08-10T19:35:58.333Z,22.80
2017-08-10T19:38:26.001Z,22.80
2017-08-10T19:40:53.633Z,22.70
2017-08-10T19:43:21.268Z,22.70
2017-08-10T19:45:48.881Z,22.70
2017-08-10T19:48:16.511Z,22.70
2017-08-10T19:50:44.861Z,22.70
2017-08-10T19:53:12.484Z,22.70
2017-08-10T19:55:40.114Z,22.70
2017-08-10T20:00:42.648Z,22.60
2017-08-10T20:03:10.267Z,22.60
2017-08-10T20:05:38.601Z,22.60
2017-08-10T20:08:06.202Z,22.60
2017-08-10T20:10:34.527Z,22.60
2017-08-10T20:13:02.543Z,22.60
2017-08-10T20:15:30.890Z,22.60
2017-08-10T20:17:58.471Z,22.60
2017-08-10T20:20:26.196Z,22.60
2017-08-10T20:22:53.801Z,22.60
2017-08-10T20:25:21.691Z,22.60
2017-08-10T20:27:49.251Z,22.60
2017-08-10T20:30:16.814Z,22.50
2017-08-10T20:32:44.418Z,22.50
2017-08-10T20:35:12.005Z,22.50
2017-08-10T20:37:40.383Z,22.50
2017-08-10T20:40:08.023Z,22.50
2017-08-10T20:42:35.614Z,22.50
2017-08-10T20:45:03.216Z,22.50
2017-08-10T20:47:30.857Z,22.50
2017-08-10T20:49:58.927Z,22.50
2017-08-10T20:52:26.500Z,22.50
2017-08-10T20:54:54.124Z,22.50
2017-08-10T20:57:21.760Z,22.50
2017-08-10T20:59:49.363Z,22.50
2017-08-10T21:02:17.291Z,22.40
2017-08-10T21:04:44.870Z,22.50
2017-08-10T21:07:13.220Z,22.40
2017-08-10T21:09:40.865Z,22.40
2017-08-10T21:12:08.461Z,22.40
2017-08-10T21:14:36.351Z,22.40
2017-08-10T21:17:03.930Z,22.40
2017-08-10T21:19:31.529Z,22.30
2017-08-10T21:21:59.157Z,22.40
2017-08-10T21:24:26.748Z,22.30
2017-08-10T21:26:54.651Z,22.30
2017-08-10T21:29:22.994Z,22.30
2017-08-10T21:31:50.568Z,22.30
2017-08-10T21:34:18.166Z,22.30
2017-08-10T21:36:46.079Z,22.30
2017-08-10T21:39:14.306Z,22.30
2017-08-10T21:41:41.876Z,22.30
2017-08-10T21:44:09.902Z,22.20
2017-08-10T21:46:37.488Z,22.20
2017-08-10T21:49:05.100Z,22.30
2017-08-10T21:51:33.261Z,22.20
2017-08-10T21:54:00.955Z,22.30
2017-08-10T21:56:28.633Z,22.20
2017-08-10T21:58:57.053Z,22.20
2017-08-10T22:01:24.631Z,22.20
2017-08-10T22:03:52.210Z,22.20
2017-08-10T22:06:19.842Z,22.20
2017-08-10T22:08:47.429Z,22.20
2017-08-10T22:11:15.022Z,22.20
2017-08-10T22:13:43.397Z,22.20
2017-08-10T22:16:10.989Z,22.20
2017-08-10T22:18:38.581Z,22.20
2017-08-10T22:21:06.202Z,22.20
2017-08-10T22:23:33.808Z,22.20
2017-08-10T22:26:01.381Z,22.20
2017-08-10T22:28:29.038Z,22.10
2017-08-10T22:30:56.610Z,22.10
2017-08-10T22:33:24.183Z,22.10
2017-08-10T22:35:52.607Z,22.10
2017-08-10T22:38:20.156Z,22.00
2017-08-10T22:40:47.768Z,22.00
2017-08-10T22:43:15.390Z,22.10
2017-08-10T22:45:42.986Z,22.00
2017-08-10T22:48:10.556Z,22.00
2017-08-10T22:50:38.300Z,22.00
2017-08-10T22:53:05.877Z,22.00
2017-08-10T22:55:33.455Z,21.90
2017-08-10T22:58:01.431Z,21.90
2017-08-10T23:00:48.096Z,21.90
2017-08-10T23:03:16.188Z,21.90
2017-08-10T23:05:43.758Z,21.80
2017-08-10T23:08:11.320Z,21.80
2017-08-10T23:10:38.917Z,21.80
2017-08-10T23:13:06.494Z,21.80
2017-08-10T23:15:34.507Z,21.80
2017-08-10T23:18:02.076Z,21.80
2017-08-10T23:20:29.655Z,21.80
2017-08-10T23:22:58.033Z,21.80
2017-08-10T23:25:25.637Z,21.80
2017-08-10T23:27:53.499Z,21.80
2017-08-10T23:30:21.341Z,21.80
2017-08-10T23:32:48.900Z,21.80
2017-08-10T23:35:16.508Z,21.80
2017-08-10T23:37:44.089Z,21.80
2017-08-10T23:40:12.764Z,21.80
2017-08-10T23:42:40.323Z,21.80
2017-08-10T23:45:07.892Z,21.80
2017-08-10T23:47:35.503Z,21.80
2017-08-10T23:50:03.074Z,21.80
2017-08-10T23:52:31.078Z,21.80
2017-08-10T23:54:58.657Z,21.90
2017-08-10T23:57:26.247Z,21.80
2017-08-10T23:59:53.847Z,21.90
